Time;durP1;ratioP1;P1;durP2;ratioP2;P2;SDS_P1;SDS_P2;PMS_P1;PMS_P2;Temp;Humidity;BMP_temperature;BMP_pressure;BME280_temperature;BME280_humidity;BME280_pressure;Samples;Min_cycle;Max_cycle;Signal;HPM_P1;HPM_P2
2021/08/31 00:00:13;;;;;;;3.03;2.38;;;20.80;73.20;;;;;;5154539;27;20474;-42
2021/08/31 00:02:38;;;;;;;2.60;2.40;;;20.80;73.20;;;;;;5136348;27;20039;-43
2021/08/31 00:05:04;;;;;;;2.63;2.00;;;20.80;73.20;;;;;;5154879;27;20043;-42
2021/08/31 00:07:30;;;;;;;3.08;2.70;;;20.80;73.20;;;;;;5155265;27;20046;-43
2021/08/31 00:09:56;;;;;;;2.25;2.05;;;20.80;73.90;;;;;;5154981;27;20077;-43
2021/08/31 00:12:21;;;;;;;2.13;1.88;;;20.80;73.20;;;;;;5155354;27;20043;-43
2021/08/31 00:14:47;;;;;;;2.28;2.05;;;20.80;73.20;;;;;;5153843;27;20051;-42
2021/08/31 00:17:16;;;;;;;2.80;2.40;;;20.80;73.20;;;;;;5154759;27;20070;-43
2021/08/31 00:19:43;;;;;;;2.00;1.73;;;20.80;73.20;;;;;;5154489;27;20121;-43
2021/08/31 00:22:08;;;;;;;2.30;2.10;;;20.80;73.30;;;;;;5155016;27;20087;-43
2021/08/31 00:24:34;;;;;;;2.60;2.20;;;20.80;73.20;;;;;;5154878;27;20050;-44
2021/08/31 00:27:00;;;;;;;2.38;2.00;;;20.80;73.30;;;;;;5154512;27;20035;-43
2021/08/31 00:29:25;;;;;;;2.40;2.17;;;20.80;73.30;;;;;;5154627;27;20046;-43
2021/08/31 00:31:51;;;;;;;2.50;2.15;;;20.80;73.30;;;;;;5154551;27;20111;-43
2021/08/31 00:34:17;;;;;;;2.28;2.08;;;20.80;73.30;;;;;;5153828;27;20050;-43
2021/08/31 00:36:42;;;;;;;2.97;2.33;;;20.80;73.30;;;;;;5154053;27;20042;-43
2021/08/31 00:39:08;;;;;;;2.83;2.30;;;20.80;73.30;;;;;;5154307;27;20049;-42
2021/08/31 00:41:36;;;;;;;2.88;2.22;;;20.80;73.30;;;;;;5154286;27;20045;-43
2021/08/31 00:44:02;;;;;;;2.38;2.15;;;20.80;73.30;;;;;;5154268;27;20042;-43
2021/08/31 00:46:28;;;;;;;2.63;2.20;;;20.80;73.30;;;;;;5153440;27;20466;-41
2021/08/31 00:48:53;;;;;;;2.38;2.05;;;20.70;73.30;;;;;;5153898;27;20030;-43
2021/08/31 00:51:24;;;;;;;2.63;2.20;;;20.80;73.30;;;;;;5154404;27;20039;-43
2021/08/31 00:53:51;;;;;;;2.60;2.40;;;20.80;73.30;;;;;;5154398;27;20042;-44
2021/08/31 00:56:17;;;;;;;2.60;2.38;;;20.80;73.30;;;;;;5154392;27;20046;-43
2021/08/31 00:58:43;;;;;;;2.17;1.90;;;20.80;73.30;;;;;;5153192;27;20047;-43
2021/08/31 01:01:09;;;;;;;2.33;2.13;;;20.80;73.40;;;;;;5153844;27;20102;-43
2021/08/31 01:03:35;;;;;;;2.35;2.10;;;20.80;73.40;;;;;;5153388;27;20038;-42
2021/08/31 01:06:02;;;;;;;2.10;1.90;;;20.80;73.40;;;;;;5154038;27;20085;-43
2021/08/31 01:08:31;;;;;;;2.60;2.28;;;20.80;73.30;;;;;;5134712;27;20490;-38
2021/08/31 01:11:01;;;;;;;2.60;2.40;;;20.80;73.40;;;;;;5154105;27;20078;-37
2021/08/31 01:13:36;;;;;;;2.30;2.10;;;20.80;73.40;;;;;;5154089;27;20086;-37
2021/08/31 01:16:03;;;;;;;2.85;2.47;;;20.80;73.30;;;;;;5153633;27;20126;-38
2021/08/31 01:18:29;;;;;;;2.03;1.83;;;20.80;73.40;;;;;;5152566;27;20034;-38
2021/08/31 01:20:58;;;;;;;2.28;1.95;;;20.80;73.40;;;;;;5117618;27;20353;-37
2021/08/31 01:23:26;;;;;;;3.45;2.15;;;20.70;73.30;;;;;;5153490;27;20486;-38
2021/08/31 01:25:53;;;;;;;2.30;2.10;;;20.80;73.40;;;;;;5153183;27;20069;-38
2021/08/31 01:28:21;;;;;;;2.63;2.42;;;20.70;73.30;;;;;;5153408;27;20061;-35
2021/08/31 01:30:49;;;;;;;3.42;2.35;;;20.70;73.40;;;;;;5153546;27;20046;-35
2021/08/31 01:33:15;;;;;;;2.63;2.03;;;20.80;73.40;;;;;;5153373;27;20046;-36
2021/08/31 01:35:41;;;;;;;2.75;2.10;;;20.70;73.30;;;;;;5153577;27;20391;-36
2021/08/31 01:38:06;;;;;;;2.83;2.20;;;20.70;73.40;;;;;;5153523;27;20113;-36
2021/08/31 01:40:32;;;;;;;2.10;1.90;;;20.70;73.40;;;;;;5153199;27;20035;-35
2021/08/31 01:42:58;;;;;;;2.10;1.80;;;20.70;73.40;;;;;;5153168;27;20455;-43
2021/08/31 01:45:24;;;;;;;2.60;1.95;;;20.70;73.40;;;;;;5156215;27;20038;-43
2021/08/31 01:47:50;;;;;;;2.08;1.83;;;20.70;73.40;;;;;;5156989;27;20042;-43
2021/08/31 01:50:15;;;;;;;2.30;1.85;;;20.70;73.40;;;;;;5156909;27;20035;-43
2021/08/31 01:52:41;;;;;;;2.85;2.30;;;20.70;73.40;;;;;;5157392;27;20070;-43
2021/08/31 01:55:07;;;;;;;2.28;2.00;;;20.70;73.50;;;;;;5157313;27;20398;-44
2021/08/31 01:57:34;;;;;;;3.33;2.10;;;20.70;73.40;;;;;;5157381;27;20047;-43
2021/08/31 02:00:00;;;;;;;2.20;2.00;;;20.70;73.50;;;;;;5157488;27;20050;-43
2021/08/31 02:02:25;;;;;;;2.10;1.90;;;20.70;73.50;;;;;;5156436;27;20467;-42
2021/08/31 02:04:51;;;;;;;2.55;2.25;;;20.70;73.50;;;;;;5156944;27;20078;-43
2021/08/31 02:07:16;;;;;;;2.85;2.15;;;20.70;73.60;;;;;;5157620;27;20111;-43
2021/08/31 02:09:42;;;;;;;3.47;1.85;;;20.70;73.50;;;;;;5157200;27;20088;-43
2021/08/31 02:12:09;;;;;;;2.03;1.88;;;20.70;73.50;;;;;;5157168;27;20065;-43
2021/08/31 02:14:34;;;;;;;2.47;2.17;;;20.70;73.50;;;;;;5157094;27;20061;-43
2021/08/31 02:17:00;;;;;;;2.50;2.28;;;20.70;73.50;;;;;;5156919;27;20050;-43
2021/08/31 02:19:26;;;;;;;2.03;1.83;;;20.70;73.50;;;;;;5156865;27;20045;-43
2021/08/31 02:21:51;;;;;;;2.38;2.17;;;20.70;73.50;;;;;;5155991;27;20125;-43
2021/08/31 02:24:17;;;;;;;2.28;2.08;;;20.70;73.60;;;;;;5156850;27;20497;-43
2021/08/31 02:26:43;;;;;;;2.05;1.85;;;20.70;73.60;;;;;;5156987;27;20422;-43
2021/08/31 02:29:09;;;;;;;2.20;2.00;;;20.60;73.50;;;;;;5156769;27;20055;-42
2021/08/31 02:31:35;;;;;;;2.80;1.95;;;20.70;73.60;;;;;;5156779;27;20049;-43
2021/08/31 02:34:01;;;;;;;1.90;1.70;;;20.70;73.60;;;;;;5156331;27;20074;-43
2021/08/31 02:36:26;;;;;;;2.40;2.03;;;20.70;73.60;;;;;;5156056;27;20081;-43
2021/08/31 02:38:52;;;;;;;1.73;1.60;;;20.70;73.60;;;;;;5156816;27;20031;-43
2021/08/31 02:41:18;;;;;;;3.30;1.95;;;20.70;73.60;;;;;;5156722;27;20051;-43
2021/08/31 02:43:43;;;;;;;3.00;1.88;;;20.70;73.60;;;;;;5156375;27;20478;-43
2021/08/31 02:46:09;;;;;;;2.20;2.00;;;20.70;73.60;;;;;;5156765;27;20049;-43
2021/08/31 02:48:34;;;;;;;2.20;2.00;;;20.70;73.60;;;;;;5156689;27;20031;-43
2021/08/31 02:51:00;;;;;;;2.92;2.15;;;20.70;73.60;;;;;;5157136;27;20046;-43
2021/08/31 02:53:26;;;;;;;2.22;1.90;;;20.70;73.60;;;;;;5156364;27;20046;-43
2021/08/31 02:55:51;;;;;;;2.50;1.77;;;20.70;73.60;;;;;;5154910;27;20065;-43
2021/08/31 02:58:17;;;;;;;2.33;2.13;;;20.70;73.60;;;;;;5156339;27;20047;-43
2021/08/31 03:00:52;;;;;;;2.33;2.13;;;20.60;73.60;;;;;;5156116;27;20050;-43
2021/08/31 03:03:18;;;;;;;2.38;1.92;;;20.60;73.60;;;;;;5156220;27;20054;-43
2021/08/31 03:05:44;;;;;;;2.42;2.10;;;20.60;73.60;;;;;;5155636;27;20042;-43
2021/08/31 03:08:09;;;;;;;2.40;2.00;;;20.60;73.60;;;;;;5155892;27;20047;-43
2021/08/31 03:10:35;;;;;;;2.50;2.30;;;20.60;73.60;;;;;;5137311;27;20099;-42
2021/08/31 03:13:00;;;;;;;2.25;2.00;;;20.70;73.60;;;;;;5156123;27;20039;-43
2021/08/31 03:15:26;;;;;;;2.60;2.00;;;20.60;73.70;;;;;;5155573;27;20051;-43
2021/08/31 03:17:52;;;;;;;2.28;2.03;;;20.60;73.60;;;;;;5155669;27;20089;-43
2021/08/31 03:20:19;;;;;;;2.70;2.15;;;20.70;73.60;;;;;;5155677;27;20557;-43
2021/08/31 03:22:45;;;;;;;2.10;1.90;;;20.60;73.60;;;;;;5155694;27;20491;-43
2021/08/31 03:25:11;;;;;;;2.45;1.88;;;20.60;73.70;;;;;;5155628;27;20081;-43
2021/08/31 03:27:37;;;;;;;2.33;2.05;;;20.60;73.60;;;;;;5155529;27;20504;-43
2021/08/31 03:30:04;;;;;;;2.20;2.00;;;20.60;73.70;;;;;;5155545;27;20443;-43
2021/08/31 03:32:30;;;;;;;2.00;1.80;;;20.60;73.60;;;;;;5155612;27;20041;-43
2021/08/31 03:34:56;;;;;;;2.08;1.77;;;20.60;73.70;;;;;;5155301;27;20121;-43
2021/08/31 03:37:21;;;;;;;2.10;1.90;;;20.60;73.60;;;;;;5155257;27;20447;-44
2021/08/31 03:39:47;;;;;;;2.15;1.90;;;20.60;73.60;;;;;;5154922;27;20133;-43
2021/08/31 03:42:13;;;;;;;2.15;1.80;;;20.60;73.60;;;;;;5154946;27;20486;-43
2021/08/31 03:44:38;;;;;;;2.00;1.80;;;20.60;73.60;;;;;;5154340;27;20089;-43
2021/08/31 03:47:04;;;;;;;1.83;1.70;;;20.60;73.60;;;;;;5155020;27;20039;-42
2021/08/31 03:49:29;;;;;;;2.20;2.00;;;20.60;73.60;;;;;;5155279;27;20038;-43
2021/08/31 03:51:55;;;;;;;2.08;1.88;;;20.60;73.70;;;;;;5136990;27;20054;-43
2021/08/31 03:54:21;;;;;;;2.20;2.00;;;20.60;73.70;;;;;;5155694;27;20049;-43
2021/08/31 03:56:46;;;;;;;1.73;1.63;;;20.60;73.70;;;;;;5155042;27;20050;-43
2021/08/31 03:59:12;;;;;;;1.95;1.80;;;20.60;73.70;;;;;;5154623;27;20479;-43
2021/08/31 04:01:37;;;;;;;2.28;1.92;;;20.60;73.70;;;;;;5154426;27;20064;-43
2021/08/31 04:04:03;;;;;;;1.92;1.73;;;20.60;73.70;;;;;;5154741;27;20477;-43
2021/08/31 04:06:29;;;;;;;2.28;2.08;;;20.60;73.70;;;;;;5154517;27;20107;-43
2021/08/31 04:08:55;;;;;;;2.22;2.00;;;20.60;73.70;;;;;;5154740;27;20170;-43
2021/08/31 04:11:20;;;;;;;3.45;2.10;;;20.60;73.60;;;;;;5154508;27;20123;-43
2021/08/31 04:13:46;;;;;;;2.20;1.90;;;20.70;73.70;;;;;;5155031;27;20066;-43
2021/08/31 04:16:12;;;;;;;1.83;1.65;;;20.60;73.70;;;;;;5154427;27;20099;-43
2021/08/31 04:18:37;;;;;;;2.53;1.80;;;20.60;73.60;;;;;;5154597;27;20406;-42
2021/08/31 04:21:03;;;;;;;2.20;1.70;;;20.60;73.70;;;;;;5153994;27;20050;-43
2021/08/31 04:23:29;;;;;;;2.17;1.98;;;20.60;74.30;;;;;;5154673;27;20051;-42
2021/08/31 04:25:54;;;;;;;2.10;1.88;;;20.60;73.60;;;;;;5154394;27;20451;-43
2021/08/31 04:28:20;;;;;;;2.00;1.80;;;20.60;73.70;;;;;;5153775;27;20049;-43
2021/08/31 04:30:46;;;;;;;2.22;1.80;;;20.60;73.60;;;;;;5153979;27;20039;-43
2021/08/31 04:33:11;;;;;;;2.47;1.90;;;20.60;73.60;;;;;;5134291;27;20043;-42
2021/08/31 04:35:38;;;;;;;2.17;1.90;;;20.60;73.60;;;;;;5154032;27;20061;-44
2021/08/31 04:38:04;;;;;;;1.88;1.77;;;20.60;73.60;;;;;;5134286;27;20047;-43
2021/08/31 04:40:30;;;;;;;3.05;1.80;;;20.60;73.60;;;;;;5152946;27;20061;-43
2021/08/31 04:42:55;;;;;;;2.47;2.00;;;20.60;73.60;;;;;;5153243;27;20046;-42
2021/08/31 04:45:21;;;;;;;1.75;1.55;;;20.60;73.70;;;;;;5153847;27;20375;-43
2021/08/31 04:47:47;;;;;;;1.92;1.73;;;20.60;73.70;;;;;;5154153;27;20056;-43
2021/08/31 04:50:13;;;;;;;1.83;1.73;;;20.60;73.70;;;;;;5154148;27;20118;-43
2021/08/31 04:52:38;;;;;;;2.92;2.13;;;20.60;73.60;;;;;;5153655;27;20099;-43
2021/08/31 04:55:05;;;;;;;1.67;1.58;;;20.60;73.60;;;;;;5154103;27;20038;-43
2021/08/31 04:57:30;;;;;;;2.10;1.90;;;20.60;73.60;;;;;;5135728;27;20074;-43
2021/08/31 04:59:56;;;;;;;2.00;1.80;;;20.60;73.60;;;;;;5153477;27;20498;-44
2021/08/31 05:02:22;;;;;;;2.10;1.60;;;20.60;73.60;;;;;;5153073;27;20137;-43
2021/08/31 05:04:47;;;;;;;1.85;1.73;;;20.60;73.60;;;;;;5153798;27;20046;-43
2021/08/31 05:07:13;;;;;;;2.20;1.77;;;20.60;73.60;;;;;;5154227;27;20039;-43
2021/08/31 05:09:41;;;;;;;2.00;1.63;;;20.60;73.60;;;;;;5153960;27;20512;-42
2021/08/31 05:12:07;;;;;;;1.77;1.65;;;20.60;73.60;;;;;;5153488;27;20042;-42
2021/08/31 05:14:32;;;;;;;2.13;1.90;;;20.60;73.60;;;;;;5153343;27;20110;-43
2021/08/31 05:16:58;;;;;;;2.10;1.75;;;20.60;73.60;;;;;;5153918;27;20418;-43
2021/08/31 05:19:25;;;;;;;2.33;1.63;;;20.60;73.60;;;;;;5153717;27;20083;-43
2021/08/31 05:21:51;;;;;;;2.05;1.80;;;20.60;73.50;;;;;;5153537;27;20039;-43
2021/08/31 05:24:17;;;;;;;3.33;1.70;;;20.60;73.60;;;;;;5153270;27;20045;-42
2021/08/31 05:26:43;;;;;;;2.45;1.75;;;20.60;73.60;;;;;;5153611;27;20083;-42
2021/08/31 05:29:09;;;;;;;2.13;1.70;;;20.60;73.60;;;;;;5153708;27;20118;-42
2021/08/31 05:31:34;;;;;;;2.05;1.85;;;20.60;73.60;;;;;;5153509;27;20376;-42
2021/08/31 05:34:00;;;;;;;1.95;1.73;;;20.60;73.60;;;;;;5153413;27;20379;-41
2021/08/31 05:36:27;;;;;;;2.00;1.80;;;20.60;73.60;;;;;;5153889;27;20078;-42
2021/08/31 05:38:53;;;;;;;2.75;1.83;;;20.60;73.60;;;;;;5153695;27;20050;-42
2021/08/31 05:41:21;;;;;;;2.00;1.80;;;20.60;73.60;;;;;;5153766;27;20042;-42
2021/08/31 05:43:47;;;;;;;2.13;1.92;;;20.60;73.60;;;;;;5153514;27;20042;-44
2021/08/31 05:46:12;;;;;;;2.90;1.80;;;20.60;73.60;;;;;;5152819;27;20577;-44
2021/08/31 05:48:38;;;;;;;2.35;1.90;;;20.50;73.50;;;;;;5153485;27;20145;-43
2021/08/31 05:51:07;;;;;;;2.10;1.90;;;20.60;73.60;;;;;;5153367;27;20038;-44
2021/08/31 05:53:33;;;;;;;1.75;1.60;;;20.50;73.50;;;;;;5152663;27;20051;-44
2021/08/31 05:55:59;;;;;;;2.08;1.80;;;20.60;73.50;;;;;;5153156;27;20535;-43
2021/08/31 05:58:24;;;;;;;2.20;1.92;;;20.60;73.60;;;;;;5153417;27;20045;-44
2021/08/31 06:00:50;;;;;;;2.10;1.90;;;20.60;73.60;;;;;;5153839;27;20129;-44
2021/08/31 06:03:16;;;;;;;2.15;1.83;;;20.60;73.50;;;;;;5153066;27;20035;-44
2021/08/31 06:05:41;;;;;;;2.22;1.73;;;20.60;73.60;;;;;;5153065;27;20035;-44
2021/08/31 06:08:07;;;;;;;2.47;1.77;;;20.60;73.50;;;;;;5152979;27;20045;-44
2021/08/31 06:10:32;;;;;;;1.77;1.63;;;20.50;73.50;;;;;;5153742;27;20043;-43
2021/08/31 06:13:00;;;;;;;1.90;1.70;;;20.50;73.50;;;;;;5153895;27;20042;-43
2021/08/31 06:15:27;;;;;;;1.83;1.60;;;20.50;73.50;;;;;;5153800;27;20055;-44
2021/08/31 06:17:52;;;;;;;2.30;1.67;;;20.60;73.50;;;;;;5152644;27;20039;-43
2021/08/31 06:20:18;;;;;;;2.03;1.80;;;20.50;73.50;;;;;;5153261;27;20371;-43
2021/08/31 06:22:45;;;;;;;1.98;1.55;;;20.60;73.60;;;;;;5153246;27;20050;-43
2021/08/31 06:25:11;;;;;;;1.75;1.65;;;20.60;73.60;;;;;;5153363;27;20090;-43
2021/08/31 06:27:37;;;;;;;2.70;1.83;;;20.60;73.60;;;;;;5153202;27;20043;-43
2021/08/31 06:30:03;;;;;;;1.85;1.63;;;20.60;73.60;;;;;;5153132;27;20045;-42
2021/08/31 06:32:29;;;;;;;1.85;1.58;;;20.50;73.50;;;;;;5155878;27;20502;-43
2021/08/31 06:34:54;;;;;;;1.70;1.60;;;20.50;73.50;;;;;;5156498;27;20070;-43
2021/08/31 06:37:20;;;;;;;1.73;1.52;;;20.60;73.50;;;;;;5156433;27;20066;-43
2021/08/31 06:39:46;;;;;;;2.22;1.75;;;20.60;73.50;;;;;;5156349;27;20073;-43
2021/08/31 06:42:11;;;;;;;1.92;1.73;;;20.50;73.50;;;;;;5156907;27;20078;-43
2021/08/31 06:44:38;;;;;;;2.25;2.05;;;20.50;73.40;;;;;;5157017;27;20050;-43
2021/08/31 06:47:05;;;;;;;2.35;1.60;;;20.50;73.50;;;;;;5156911;27;20039;-43
2021/08/31 06:49:31;;;;;;;2.28;1.80;;;20.50;73.50;;;;;;5155811;27;20054;-43
2021/08/31 06:51:57;;;;;;;1.70;1.60;;;20.60;73.60;;;;;;5156232;27;20042;-42
2021/08/31 06:54:22;;;;;;;2.28;2.08;;;20.50;73.50;;;;;;5156143;27;20501;-43
2021/08/31 06:56:48;;;;;;;2.83;2.13;;;20.60;73.50;;;;;;5156680;27;20506;-43
2021/08/31 06:59:14;;;;;;;2.08;1.88;;;20.60;73.50;;;;;;5138063;27;20459;-43
2021/08/31 07:01:39;;;;;;;2.55;1.98;;;20.50;74.10;;;;;;5125448;27;20488;-43
2021/08/31 07:04:05;;;;;;;2.05;1.75;;;20.60;73.50;;;;;;5139654;27;20061;-43
2021/08/31 07:06:31;;;;;;;2.22;2.00;;;20.60;73.50;;;;;;5152145;27;20047;-43
2021/08/31 07:08:59;;;;;;;3.00;1.90;;;20.60;73.50;;;;;;5154662;27;20042;-43
2021/08/31 07:11:24;;;;;;;2.33;2.00;;;20.60;73.50;;;;;;5154158;27;20041;-43
2021/08/31 07:13:50;;;;;;;2.55;2.10;;;20.60;73.50;;;;;;5155586;27;20378;-43
2021/08/31 07:16:16;;;;;;;3.22;1.92;;;20.50;73.40;;;;;;5136352;27;20077;-43
2021/08/31 07:18:41;;;;;;;2.55;2.00;;;20.60;73.50;;;;;;5156182;27;20380;-41
2021/08/31 07:21:07;;;;;;;2.50;1.92;;;20.60;73.40;;;;;;5155683;27;20034;-41
2021/08/31 07:23:33;;;;;;;2.88;2.22;;;20.60;73.40;;;;;;5154903;27;20031;-42
2021/08/31 07:25:58;;;;;;;2.20;2.00;;;20.60;73.50;;;;;;5155504;27;20542;-42
2021/08/31 07:28:24;;;;;;;2.55;1.67;;;20.60;73.50;;;;;;5156229;27;20046;-42
2021/08/31 07:30:50;;;;;;;2.70;1.95;;;20.60;73.50;;;;;;5154947;27;20038;-42
2021/08/31 07:33:15;;;;;;;2.40;2.00;;;20.60;73.50;;;;;;5154663;27;20045;-42
2021/08/31 07:35:43;;;;;;;2.55;2.05;;;20.60;73.50;;;;;;5155636;27;20046;-42
2021/08/31 07:38:09;;;;;;;2.33;1.98;;;20.60;73.50;;;;;;5155564;27;20070;-41
2021/08/31 07:40:35;;;;;;;2.35;2.08;;;20.60;73.60;;;;;;5155803;27;20134;-41
2021/08/31 07:43:01;;;;;;;3.90;2.22;;;20.60;73.50;;;;;;5155105;27;20124;-43
2021/08/31 07:45:27;;;;;;;2.78;2.10;;;20.70;73.60;;;;;;5155897;27;20050;-43
2021/08/31 07:47:52;;;;;;;2.30;1.92;;;20.70;73.60;;;;;;5155511;27;20039;-43
2021/08/31 07:50:18;;;;;;;2.22;1.80;;;20.60;73.50;;;;;;5155353;27;20402;-43
2021/08/31 07:52:44;;;;;;;2.35;2.08;;;20.70;73.60;;;;;;5154902;27;20118;-43
2021/08/31 07:55:10;;;;;;;2.78;2.33;;;20.70;73.60;;;;;;5155342;27;20047;-43
2021/08/31 07:57:37;;;;;;;2.15;1.95;;;20.70;73.60;;;;;;5154930;27;20081;-43
2021/08/31 08:00:06;;;;;;;2.25;1.90;;;20.70;73.60;;;;;;5155095;27;20047;-43
2021/08/31 08:02:35;;;;;;;2.50;1.58;;;20.70;73.60;;;;;;5155838;27;20070;-42
2021/08/31 08:05:02;;;;;;;2.28;1.75;;;20.70;73.60;;;;;;5155331;27;20122;-43
2021/08/31 08:07:28;;;;;;;1.77;1.60;;;20.70;73.50;;;;;;5154937;27;20046;-42
2021/08/31 08:09:54;;;;;;;15.88;5.68;;;20.70;73.50;;;;;;5155309;27;20043;-39
2021/08/31 08:12:21;;;;;;;11.63;3.80;;;20.70;73.50;;;;;;5154979;27;20054;-39
2021/08/31 08:14:50;;;;;;;8.82;3.65;;;20.80;73.50;;;;;;5155088;27;20046;-39
2021/08/31 08:17:17;;;;;;;9.45;4.25;;;20.80;73.50;;;;;;5155774;27;20398;-40
2021/08/31 08:19:43;;;;;;;14.10;3.67;;;20.80;73.50;;;;;;5155010;27;20441;-38
2021/08/31 08:22:08;;;;;;;7.90;3.92;;;20.80;73.50;;;;;;5136215;27;20043;-38
2021/08/31 08:24:34;;;;;;;7.15;3.63;;;20.80;73.50;;;;;;5154532;27;20528;-40
2021/08/31 08:27:00;;;;;;;7.88;3.20;;;20.80;73.50;;;;;;5154634;27;20375;-39
2021/08/31 08:29:26;;;;;;;9.02;3.55;;;20.80;73.50;;;;;;5135768;27;20054;-38
2021/08/31 08:31:52;;;;;;;9.07;2.97;;;20.80;73.40;;;;;;5155058;27;20190;-39
2021/08/31 08:34:18;;;;;;;11.18;3.97;;;20.90;73.50;;;;;;5154824;27;20566;-39
2021/08/31 08:36:44;;;;;;;7.20;2.95;;;20.90;73.40;;;;;;5154841;27;20171;-40
2021/08/31 08:39:09;;;;;;;5.82;3.17;;;20.90;73.40;;;;;;5154415;27;20121;-38
2021/08/31 08:41:35;;;;;;;5.25;3.13;;;20.90;73.30;;;;;;5154433;27;20129;-39
2021/08/31 08:44:02;;;;;;;8.15;3.45;;;20.90;73.30;;;;;;5154699;27;20150;-39
2021/08/31 08:46:28;;;;;;;5.75;3.20;;;20.90;73.30;;;;;;5154681;27;20030;-39
2021/08/31 08:48:57;;;;;;;5.13;2.50;;;20.90;73.20;;;;;;5154630;27;20070;-39
2021/08/31 08:51:23;;;;;;;6.35;2.80;;;20.90;73.10;;;;;;5154608;27;20042;-33
2021/08/31 08:53:49;;;;;;;7.43;2.95;;;20.90;73.10;;;;;;5154018;27;20038;-37
2021/08/31 08:56:15;;;;;;;3.63;2.28;;;21.00;73.10;;;;;;5153666;27;20052;-44
2021/08/31 08:58:40;;;;;;;4.43;2.60;;;21.00;73.10;;;;;;5154242;27;20038;-46
2021/08/31 09:01:08;;;;;;;5.22;2.60;;;21.00;73.60;;;;;;5154336;27;20049;-45
2021/08/31 09:03:36;;;;;;;3.38;2.35;;;21.00;72.90;;;;;;5154291;27;20364;-46
2021/08/31 09:06:14;;;;;;;7.53;3.00;;;21.00;72.90;;;;;;5154132;27;20102;-46
2021/08/31 09:08:53;;;;;;;3.83;2.47;;;21.00;72.90;;;;;;5154083;27;20083;-45
2021/08/31 09:11:27;;;;;;;4.47;2.45;;;21.10;72.90;;;;;;5153724;27;20075;-45
2021/08/31 09:14:15;;;;;;;5.37;2.47;;;21.00;72.80;;;;;;5153718;27;20065;-44
2021/08/31 09:16:42;;;;;;;4.47;2.53;;;21.10;72.80;;;;;;5154324;27;20106;-45
2021/08/31 09:19:08;;;;;;;4.03;2.88;;;21.10;72.80;;;;;;5154102;27;20047;-46
2021/08/31 09:21:34;;;;;;;4.97;2.25;;;21.10;72.80;;;;;;5135554;27;20478;-45
2021/08/31 09:24:00;;;;;;;5.38;2.70;;;21.10;72.70;;;;;;5154268;27;20109;-45
2021/08/31 09:26:44;;;;;;;4.03;2.40;;;21.10;72.70;;;;;;5153638;27;20562;-46
2021/08/31 09:29:17;;;;;;;4.32;2.50;;;21.10;72.60;;;;;;5153980;27;20129;-46
2021/08/31 09:31:54;;;;;;;3.83;2.42;;;21.10;72.70;;;;;;5154332;27;20424;-44
2021/08/31 09:34:43;;;;;;;4.43;2.55;;;21.20;72.70;;;;;;5135936;27;20135;-46
2021/08/31 09:37:25;;;;;;;3.40;2.45;;;21.20;72.60;;;;;;5153970;27;20497;-44
2021/08/31 09:40:13;;;;;;;6.32;2.78;;;21.20;72.60;;;;;;5153990;27;20038;-43
2021/08/31 09:42:52;;;;;;;3.33;2.50;;;21.20;72.50;;;;;;5153190;27;20054;-42
2021/08/31 09:45:23;;;;;;;3.08;2.38;;;21.20;72.50;;;;;;5153889;27;20098;-43
2021/08/31 09:47:48;;;;;;;4.53;2.72;;;21.20;72.50;;;;;;5153716;27;20526;-46
2021/08/31 09:50:29;;;;;;;5.45;2.83;;;21.20;72.40;;;;;;5153568;27;20142;-42
2021/08/31 09:53:20;;;;;;;4.22;2.33;;;21.30;73.10;;;;;;5135010;27;20046;-43
2021/08/31 09:56:04;;;;;;;3.60;2.42;;;21.30;72.40;;;;;;5153945;27;20043;-43
2021/08/31 09:58:32;;;;;;;3.83;2.13;;;21.20;72.30;;;;;;5153112;27;20041;-43
2021/08/31 10:00:58;;;;;;;4.70;2.45;;;21.30;72.40;;;;;;5153458;27;20043;-44
2021/08/31 10:03:25;;;;;;;3.90;2.15;;;21.30;72.40;;;;;;5153377;27;20039;-44
2021/08/31 10:05:54;;;;;;;2.78;2.30;;;21.30;72.30;;;;;;5155767;27;20125;-47
2021/08/31 10:08:20;;;;;;;3.95;2.50;;;21.30;72.20;;;;;;5157584;27;20047;-44
2021/08/31 10:10:51;;;;;;;3.13;2.30;;;21.30;72.20;;;;;;5157776;27;20031;-45
2021/08/31 10:13:23;;;;;;;2.97;2.03;;;21.30;72.20;;;;;;5157395;27;20039;-46
2021/08/31 10:15:54;;;;;;;5.13;2.70;;;21.30;72.20;;;;;;5157474;27;20050;-46
2021/08/31 10:18:23;;;;;;;3.42;2.10;;;21.30;72.20;;;;;;5139793;27;20046;-46
2021/08/31 10:20:52;;;;;;;2.97;1.90;;;21.30;72.10;;;;;;5157453;27;20038;-44
2021/08/31 10:23:31;;;;;;;4.47;2.17;;;21.30;72.10;;;;;;5139085;27;20054;-42
2021/08/31 10:26:22;;;;;;;8.38;3.13;;;21.40;71.80;;;;;;5157037;27;20428;-46
2021/08/31 10:28:48;;;;;;;5.47;2.70;;;21.30;71.70;;;;;;5157147;27;20051;-43
2021/08/31 10:31:28;;;;;;;6.60;2.50;;;21.40;71.80;;;;;;5157088;27;20448;-44
2021/08/31 10:33:54;;;;;;;6.15;3.10;;;21.40;71.80;;;;;;5157205;27;20096;-47
2021/08/31 10:36:35;;;;;;;7.43;2.80;;;21.40;71.80;;;;;;5156762;27;20046;-46
2021/08/31 10:39:03;;;;;;;6.40;2.90;;;21.40;71.80;;;;;;5156570;27;20047;-44
2021/08/31 10:41:36;;;;;;;5.85;2.67;;;21.40;71.80;;;;;;5156635;27;20054;-47
2021/08/31 10:44:03;;;;;;;5.85;2.63;;;21.40;71.80;;;;;;5156757;27;20498;-46
2021/08/31 10:46:58;;;;;;;5.47;2.85;;;21.40;71.80;;;;;;5156011;27;20038;-46
2021/08/31 10:49:24;;;;;;;4.43;2.65;;;21.40;71.70;;;;;;5156647;27;20117;-37
2021/08/31 10:52:02;;;;;;;4.47;2.45;;;21.40;71.70;;;;;;5156612;27;20483;-42
2021/08/31 10:54:47;;;;;;;4.32;2.25;;;21.40;71.70;;;;;;5157000;27;20043;-38
2021/08/31 10:57:32;;;;;;;;;;;21.50;71.70;;;;;;5157082;27;20475;-39
2021/08/31 10:59:57;;;;;;;4.68;2.28;;;21.50;71.70;;;;;;5156381;27;20423;-35
2021/08/31 11:02:44;;;;;;;5.13;2.60;;;21.40;71.70;;;;;;5156151;27;20042;-36
2021/08/31 11:05:22;;;;;;;6.13;2.50;;;21.40;71.70;;;;;;5156500;27;20054;-42
2021/08/31 11:07:54;;;;;;;6.38;2.60;;;21.40;71.70;;;;;;5138009;27;20046;-38
2021/08/31 11:10:34;;;;;;;4.20;2.17;;;21.40;71.70;;;;;;5156592;27;20430;-42
2021/08/31 11:13:17;;;;;;;3.67;2.40;;;21.40;71.60;;;;;;5156141;27;20553;-37
2021/08/31 11:15:47;;;;;;;4.45;2.25;;;21.50;72.30;;;;;;5156128;27;20054;-34
2021/08/31 11:18:14;;;;;;;4.72;2.70;;;21.50;71.70;;;;;;5145698;27;20046;-34
2021/08/31 11:20:42;;;;;;;6.80;2.70;;;21.50;71.60;;;;;;5156078;27;20121;-36
2021/08/31 11:23:11;;;;;;;4.63;2.60;;;21.50;71.60;;;;;;5155301;27;20619;-34
2021/08/31 11:25:40;;;;;;;4.50;2.30;;;21.50;71.60;;;;;;5155594;27;20038;-37
2021/08/31 11:28:10;;;;;;;4.28;2.60;;;21.50;71.60;;;;;;5156394;27;20388;-38
2021/08/31 11:31:04;;;;;;;2.97;2.30;;;21.50;71.60;;;;;;5155434;27;20141;-35
2021/08/31 11:33:38;;;;;;;3.38;2.20;;;21.50;71.60;;;;;;5136952;27;20039;-36
2021/08/31 11:36:12;;;;;;;4.70;2.55;;;21.50;71.60;;;;;;5155666;27;20047;-38
2021/08/31 11:38:40;;;;;;;4.18;2.08;;;21.50;71.60;;;;;;5156061;27;20049;-33
2021/08/31 11:41:19;;;;;;;4.85;2.40;;;21.50;71.60;;;;;;5155911;27;20078;-35
2021/08/31 11:43:47;;;;;;;4.15;2.28;;;21.50;71.50;;;;;;5156124;27;20046;-38
2021/08/31 11:46:17;;;;;;;3.38;1.85;;;21.50;71.60;;;;;;5155134;27;20038;-34
2021/08/31 11:48:43;;;;;;;4.15;2.20;;;21.50;71.60;;;;;;5155028;27;20039;-38
2021/08/31 11:51:09;;;;;;;3.17;2.17;;;21.50;71.50;;;;;;5155603;27;20398;-39
2021/08/31 11:53:35;;;;;;;4.85;2.35;;;21.50;71.50;;;;;;5155329;27;20091;-40
2021/08/31 11:56:03;;;;;;;2.72;2.08;;;21.50;71.50;;;;;;5155916;27;20042;-38
2021/08/31 11:58:31;;;;;;;5.47;2.15;;;21.50;71.50;;;;;;5155494;27;20035;-41
2021/08/31 12:00:58;;;;;;;2.92;1.98;;;21.50;71.50;;;;;;5155318;27;20495;-42
2021/08/31 12:03:26;;;;;;;3.97;2.40;;;21.50;71.50;;;;;;5155084;27;20095;-37
2021/08/31 12:06:12;;;;;;;3.42;2.22;;;21.50;71.50;;;;;;5155383;27;20099;-40
2021/08/31 12:08:42;;;;;;;3.03;2.20;;;21.50;71.50;;;;;;5136431;27;20217;-35
2021/08/31 12:11:09;;;;;;;3.95;2.20;;;21.50;71.50;;;;;;5154657;27;20046;-40
2021/08/31 12:13:36;;;;;;;4.22;2.35;;;21.50;71.50;;;;;;5154294;27;20122;-36
2021/08/31 12:16:03;;;;;;;3.42;1.92;;;21.50;71.50;;;;;;5129505;27;20107;-36
2021/08/31 12:18:30;;;;;;;3.42;2.30;;;21.50;71.60;;;;;;5133976;27;20051;-36
2021/08/31 12:21:17;;;;;;;4.10;2.15;;;21.50;71.60;;;;;;5133662;27;20047;-36
2021/08/31 12:23:43;;;;;;;4.82;2.50;;;21.50;71.50;;;;;;5134293;27;20039;-40
2021/08/31 12:26:09;;;;;;;3.10;2.10;;;21.50;71.50;;;;;;5132934;27;20039;-35
2021/08/31 12:28:35;;;;;;;3.13;1.80;;;21.50;71.60;;;;;;5132833;27;20046;-36
2021/08/31 12:31:14;;;;;;;2.78;1.65;;;21.50;71.50;;;;;;5130566;27;20042;-34
2021/08/31 12:33:39;;;;;;;3.13;2.15;;;21.50;71.50;;;;;;5130586;27;20051;-37
2021/08/31 12:36:11;;;;;;;3.30;1.98;;;21.50;71.50;;;;;;5129730;27;20039;-40
2021/08/31 12:38:41;;;;;;;3.95;2.00;;;21.50;71.50;;;;;;5130360;27;20039;-37
2021/08/31 12:41:14;;;;;;;4.07;2.10;;;21.50;71.50;;;;;;5129873;27;20146;-35
2021/08/31 12:43:49;;;;;;;3.33;2.00;;;21.50;71.50;;;;;;5129826;27;20050;-37
2021/08/31 12:46:27;;;;;;;3.08;2.05;;;21.50;71.50;;;;;;5130298;27;20079;-35
2021/08/31 12:49:07;;;;;;;2.10;1.70;;;21.50;71.60;;;;;;5130355;27;20039;-38
2021/08/31 12:51:38;;;;;;;2.55;2.05;;;21.50;71.50;;;;;;5133515;27;20060;-40